sensor_id;sensor_type;location;lat;lon;timestamp;temperature;humidity
52036;DHT22;38046;49.448;32.074;2023-03-14T00:01:47;6.30;52.90
52036;DHT22;38046;49.448;32.074;2023-03-14T00:04:14;6.30;52.80
52036;DHT22;38046;49.448;32.074;2023-03-14T00:06:39;6.30;52.70
52036;DHT22;38046;49.448;32.074;2023-03-14T00:09:05;6.30;52.70
52036;DHT22;38046;49.448;32.074;2023-03-14T00:11:31;6.30;52.70
52036;DHT22;38046;49.448;32.074;2023-03-14T00:13:56;6.30;52.50
52036;DHT22;38046;49.448;32.074;2023-03-14T00:16:22;6.30;52.40
52036;DHT22;38046;49.448;32.074;2023-03-14T00:18:48;6.20;52.30
52036;DHT22;38046;49.448;32.074;2023-03-14T00:21:14;6.20;52.20
52036;DHT22;38046;49.448;32.074;2023-03-14T00:23:41;6.20;52.00
52036;DHT22;38046;49.448;32.074;2023-03-14T00:26:09;6.20;51.90
52036;DHT22;38046;49.448;32.074;2023-03-14T00:28:35;6.20;51.80
52036;DHT22;38046;49.448;32.074;2023-03-14T00:31:06;6.20;51.70
52036;DHT22;38046;49.448;32.074;2023-03-14T00:33:32;6.20;51.30
52036;DHT22;38046;49.448;32.074;2023-03-14T00:36:04;6.20;51.40
52036;DHT22;38046;49.448;32.074;2023-03-14T00:38:31;6.20;51.40
52036;DHT22;38046;49.448;32.074;2023-03-14T00:40:57;6.20;51.00
52036;DHT22;38046;49.448;32.074;2023-03-14T00:43:23;6.20;50.70
52036;DHT22;38046;49.448;32.074;2023-03-14T00:45:50;6.20;50.60
52036;DHT22;38046;49.448;32.074;2023-03-14T00:48:17;6.20;50.40
52036;DHT22;38046;49.448;32.074;2023-03-14T00:50:43;6.20;50.00
52036;DHT22;38046;49.448;32.074;2023-03-14T00:53:09;6.20;49.80
52036;DHT22;38046;49.448;32.074;2023-03-14T00:55:39;6.20;49.60
52036;DHT22;38046;49.448;32.074;2023-03-14T00:58:06;6.20;49.40
52036;DHT22;38046;49.448;32.074;2023-03-14T01:00:32;6.30;49.50
52036;DHT22;38046;49.448;32.074;2023-03-14T01:02:58;6.30;49.30
52036;DHT22;38046;49.448;32.074;2023-03-14T01:05:24;6.30;49.10
52036;DHT22;38046;49.448;32.074;2023-03-14T01:07:49;6.30;48.90
52036;DHT22;38046;49.448;32.074;2023-03-14T01:10:15;6.40;48.90
52036;DHT22;38046;49.448;32.074;2023-03-14T01:12:41;6.30;48.60
52036;DHT22;38046;49.448;32.074;2023-03-14T01:15:07;6.30;48.40
52036;DHT22;38046;49.448;32.074;2023-03-14T01:17:33;6.30;48.20
52036;DHT22;38046;49.448;32.074;2023-03-14T01:20:00;6.30;48.20
52036;DHT22;38046;49.448;32.074;2023-03-14T01:22:26;6.30;48.10
52036;DHT22;38046;49.448;32.074;2023-03-14T01:24:51;6.30;47.90
52036;DHT22;38046;49.448;32.074;2023-03-14T01:27:17;6.30;47.80
52036;DHT22;38046;49.448;32.074;2023-03-14T01:29:43;6.30;47.70
52036;DHT22;38046;49.448;32.074;2023-03-14T01:32:08;6.30;48.00
52036;DHT22;38046;49.448;32.074;2023-03-14T01:34:34;6.30;47.90
52036;DHT22;38046;49.448;32.074;2023-03-14T01:36:59;6.30;47.80
52036;DHT22;38046;49.448;32.074;2023-03-14T01:39:25;6.30;47.70
52036;DHT22;38046;49.448;32.074;2023-03-14T01:41:51;6.30;47.50
52036;DHT22;38046;49.448;32.074;2023-03-14T01:44:16;6.30;47.50
52036;DHT22;38046;49.448;32.074;2023-03-14T01:46:43;6.30;47.50
52036;DHT22;38046;49.448;32.074;2023-03-14T01:49:30;6.30;47.40
52036;DHT22;38046;49.448;32.074;2023-03-14T01:57:11;6.40;47.60
52036;DHT22;38046;49.448;32.074;2023-03-14T01:59:40;6.40;47.40
52036;DHT22;38046;49.448;32.074;2023-03-14T02:02:09;6.40;47.30
52036;DHT22;38046;49.448;32.074;2023-03-14T02:04:37;6.40;47.30
52036;DHT22;38046;49.448;32.074;2023-03-14T02:07:19;6.40;47.30
52036;DHT22;38046;49.448;32.074;2023-03-14T02:09:46;6.40;47.40
52036;DHT22;38046;49.448;32.074;2023-03-14T02:12:15;6.40;47.60
52036;DHT22;38046;49.448;32.074;2023-03-14T02:14:42;6.40;47.40
52036;DHT22;38046;49.448;32.074;2023-03-14T02:17:14;6.40;47.40
52036;DHT22;38046;49.448;32.074;2023-03-14T02:19:57;6.30;47.60
52036;DHT22;38046;49.448;32.074;2023-03-14T02:22:25;6.30;47.60
52036;DHT22;38046;49.448;32.074;2023-03-14T02:27:26;6.30;47.90
52036;DHT22;38046;49.448;32.074;2023-03-14T02:29:58;6.30;47.80
52036;DHT22;38046;49.448;32.074;2023-03-14T02:32:26;6.30;47.90
52036;DHT22;38046;49.448;32.074;2023-03-14T02:34:55;6.30;48.10
52036;DHT22;38046;49.448;32.074;2023-03-14T02:37:24;6.30;48.00
52036;DHT22;38046;49.448;32.074;2023-03-14T02:39:52;6.30;48.20
52036;DHT22;38046;49.448;32.074;2023-03-14T02:42:18;6.30;48.10
52036;DHT22;38046;49.448;32.074;2023-03-14T02:45:40;6.30;48.10
52036;DHT22;38046;49.448;32.074;2023-03-14T02:47:44;6.30;48.30
52036;DHT22;38046;49.448;32.074;2023-03-14T02:50:15;6.30;48.30
52036;DHT22;38046;49.448;32.074;2023-03-14T02:52:42;6.30;48.40
52036;DHT22;38046;49.448;32.074;2023-03-14T02:55:08;6.30;48.40
52036;DHT22;38046;49.448;32.074;2023-03-14T02:57:34;6.30;48.50
52036;DHT22;38046;49.448;32.074;2023-03-14T03:00:01;6.40;48.70
52036;DHT22;38046;49.448;32.074;2023-03-14T03:02:27;6.40;48.60
52036;DHT22;38046;49.448;32.074;2023-03-14T03:04:53;6.40;48.60
52036;DHT22;38046;49.448;32.074;2023-03-14T03:07:19;6.40;48.80
52036;DHT22;38046;49.448;32.074;2023-03-14T03:09:45;6.50;48.60
52036;DHT22;38046;49.448;32.074;2023-03-14T03:12:11;6.50;48.60
52036;DHT22;38046;49.448;32.074;2023-03-14T03:14:36;6.50;48.60
52036;DHT22;38046;49.448;32.074;2023-03-14T03:17:06;6.50;48.60
52036;DHT22;38046;49.448;32.074;2023-03-14T03:19:32;6.60;48.70
52036;DHT22;38046;49.448;32.074;2023-03-14T03:21:58;6.60;48.60
52036;DHT22;38046;49.448;32.074;2023-03-14T03:24:25;6.60;48.60
52036;DHT22;38046;49.448;32.074;2023-03-14T03:26:51;6.50;48.60
52036;DHT22;38046;49.448;32.074;2023-03-14T03:29:16;6.60;48.70
52036;DHT22;38046;49.448;32.074;2023-03-14T03:31:42;6.50;48.70
52036;DHT22;38046;49.448;32.074;2023-03-14T03:34:12;6.60;48.70
52036;DHT22;38046;49.448;32.074;2023-03-14T03:36:38;6.50;48.70
52036;DHT22;38046;49.448;32.074;2023-03-14T03:39:04;6.50;48.60
52036;DHT22;38046;49.448;32.074;2023-03-14T03:41:30;6.50;48.90
52036;DHT22;38046;49.448;32.074;2023-03-14T03:43:56;6.50;48.80
52036;DHT22;38046;49.448;32.074;2023-03-14T03:46:22;6.50;48.90
52036;DHT22;38046;49.448;32.074;2023-03-14T03:48:47;6.50;49.10
52036;DHT22;38046;49.448;32.074;2023-03-14T03:51:14;6.40;49.10
52036;DHT22;38046;49.448;32.074;2023-03-14T03:53:41;6.40;49.30
52036;DHT22;38046;49.448;32.074;2023-03-14T03:56:08;6.50;49.40
52036;DHT22;38046;49.448;32.074;2023-03-14T03:58:34;6.50;49.50
52036;DHT22;38046;49.448;32.074;2023-03-14T04:01:00;6.50;49.50
52036;DHT22;38046;49.448;32.074;2023-03-14T04:03:25;6.50;49.50
52036;DHT22;38046;49.448;32.074;2023-03-14T04:06:03;6.50;49.70
52036;DHT22;38046;49.448;32.074;2023-03-14T04:08:29;6.50;49.80
52036;DHT22;38046;49.448;32.074;2023-03-14T04:10:59;6.50;49.70
52036;DHT22;38046;49.448;32.074;2023-03-14T04:13:26;6.50;49.80
52036;DHT22;38046;49.448;32.074;2023-03-14T04:15:52;6.50;49.90
52036;DHT22;38046;49.448;32.074;2023-03-14T04:18:19;6.50;49.90
52036;DHT22;38046;49.448;32.074;2023-03-14T04:20:45;6.50;49.90
52036;DHT22;38046;49.448;32.074;2023-03-14T04:23:11;6.50;50.20
52036;DHT22;38046;49.448;32.074;2023-03-14T04:25:36;6.60;50.20
52036;DHT22;38046;49.448;32.074;2023-03-14T04:28:02;6.60;50.30
52036;DHT22;38046;49.448;32.074;2023-03-14T04:30:29;6.60;50.30
52036;DHT22;38046;49.448;32.074;2023-03-14T04:32:55;6.60;50.30
52036;DHT22;38046;49.448;32.074;2023-03-14T04:35:20;6.60;50.30
52036;DHT22;38046;49.448;32.074;2023-03-14T04:37:46;6.60;50.40
52036;DHT22;38046;49.448;32.074;2023-03-14T04:40:14;6.70;50.50
52036;DHT22;38046;49.448;32.074;2023-03-14T04:42:40;6.70;50.60
52036;DHT22;38046;49.448;32.074;2023-03-14T04:45:06;6.70;50.70
52036;DHT22;38046;49.448;32.074;2023-03-14T04:47:32;6.80;50.80
52036;DHT22;38046;49.448;32.074;2023-03-14T04:49:58;6.90;51.10
52036;DHT22;38046;49.448;32.074;2023-03-14T04:52:23;6.90;51.00
52036;DHT22;38046;49.448;32.074;2023-03-14T04:54:49;6.90;51.10
52036;DHT22;38046;49.448;32.074;2023-03-14T04:57:15;7.00;51.20
52036;DHT22;38046;49.448;32.074;2023-03-14T04:59:40;7.10;51.20
52036;DHT22;38046;49.448;32.074;2023-03-14T05:02:06;7.20;51.10
52036;DHT22;38046;49.448;32.074;2023-03-14T05:04:32;7.20;51.10
52036;DHT22;38046;49.448;32.074;2023-03-14T05:06:59;7.30;51.00
52036;DHT22;38046;49.448;32.074;2023-03-14T05:09:25;7.40;50.90
52036;DHT22;38046;49.448;32.074;2023-03-14T05:11:50;7.50;51.00
52036;DHT22;38046;49.448;32.074;2023-03-14T05:14:16;7.50;50.90
52036;DHT22;38046;49.448;32.074;2023-03-14T05:16:42;7.60;51.00
52036;DHT22;38046;49.448;32.074;2023-03-14T05:19:07;7.80;51.00
52036;DHT22;38046;49.448;32.074;2023-03-14T05:21:33;7.80;50.80
52036;DHT22;38046;49.448;32.074;2023-03-14T05:23:59;8.00;51.00
52036;DHT22;38046;49.448;32.074;2023-03-14T05:26:24;8.10;50.90
52036;DHT22;38046;49.448;32.074;2023-03-14T05:28:50;8.20;50.80
52036;DHT22;38046;49.448;32.074;2023-03-14T05:31:16;8.20;50.70
52036;DHT22;38046;49.448;32.074;2023-03-14T05:33:41;8.30;50.70
52036;DHT22;38046;49.448;32.074;2023-03-14T05:36:07;8.40;50.60
52036;DHT22;38046;49.448;32.074;2023-03-14T05:38:33;8.50;50.60
52036;DHT22;38046;49.448;32.074;2023-03-14T05:40:58;8.60;50.50
52036;DHT22;38046;49.448;32.074;2023-03-14T05:43:24;8.70;50.40
52036;DHT22;38046;49.448;32.074;2023-03-14T05:45:50;8.80;50.30
52036;DHT22;38046;49.448;32.074;2023-03-14T05:48:15;8.90;50.20
52036;DHT22;38046;49.448;32.074;2023-03-14T05:50:42;9.10;49.90
52036;DHT22;38046;49.448;32.074;2023-03-14T05:53:08;9.20;49.70
52036;DHT22;38046;49.448;32.074;2023-03-14T05:55:33;9.30;49.60
52036;DHT22;38046;49.448;32.074;2023-03-14T05:57:59;9.60;49.50
52036;DHT22;38046;49.448;32.074;2023-03-14T06:00:25;9.80;49.20
52036;DHT22;38046;49.448;32.074;2023-03-14T06:02:50;10.10;48.90
52036;DHT22;38046;49.448;32.074;2023-03-14T06:05:16;10.30;48.60
52036;DHT22;38046;49.448;32.074;2023-03-14T06:07:42;10.60;48.30
52036;DHT22;38046;49.448;32.074;2023-03-14T06:10:08;10.80;48.10
52036;DHT22;38046;49.448;32.074;2023-03-14T06:12:34;11.00;47.80
52036;DHT22;38046;49.448;32.074;2023-03-14T06:14:59;11.40;47.70
52036;DHT22;38046;49.448;32.074;2023-03-14T06:17:25;11.80;47.60
52036;DHT22;38046;49.448;32.074;2023-03-14T06:19:51;12.10;47.10
52036;DHT22;38046;49.448;32.074;2023-03-14T06:22:16;12.50;46.90
52036;DHT22;38046;49.448;32.074;2023-03-14T06:24:42;12.80;46.70
52036;DHT22;38046;49.448;32.074;2023-03-14T06:27:08;13.10;46.40
52036;DHT22;38046;49.448;32.074;2023-03-14T06:29:33;13.40;46.10
52036;DHT22;38046;49.448;32.074;2023-03-14T06:31:59;13.70;45.50
52036;DHT22;38046;49.448;32.074;2023-03-14T06:34:25;13.90;44.80
52036;DHT22;38046;49.448;32.074;2023-03-14T06:36:51;13.90;44.70
52036;DHT22;38046;49.448;32.074;2023-03-14T06:39:16;13.70;44.20
52036;DHT22;38046;49.448;32.074;2023-03-14T06:41:42;13.40;44.50
52036;DHT22;38046;49.448;32.074;2023-03-14T06:44:07;13.00;44.70
52036;DHT22;38046;49.448;32.074;2023-03-14T06:46:33;12.60;45.00
52036;DHT22;38046;49.448;32.074;2023-03-14T06:48:59;12.20;45.60
52036;DHT22;38046;49.448;32.074;2023-03-14T06:51:24;11.90;46.20
52036;DHT22;38046;49.448;32.074;2023-03-14T06:53:50;11.60;46.50
52036;DHT22;38046;49.448;32.074;2023-03-14T06:56:16;11.40;46.80
52036;DHT22;38046;49.448;32.074;2023-03-14T06:58:41;11.10;47.00
52036;DHT22;38046;49.448;32.074;2023-03-14T07:01:18;11.00;47.50
52036;DHT22;38046;49.448;32.074;2023-03-14T07:03:45;10.80;47.70
52036;DHT22;38046;49.448;32.074;2023-03-14T07:06:10;10.70;47.80
52036;DHT22;38046;49.448;32.074;2023-03-14T07:08:36;10.60;47.90
52036;DHT22;38046;49.448;32.074;2023-03-14T07:11:03;10.50;48.10
52036;DHT22;38046;49.448;32.074;2023-03-14T07:13:29;10.50;48.30
52036;DHT22;38046;49.448;32.074;2023-03-14T07:15:55;10.40;48.50
52036;DHT22;38046;49.448;32.074;2023-03-14T07:18:20;10.40;48.40
52036;DHT22;38046;49.448;32.074;2023-03-14T07:20:46;10.40;48.50
52036;DHT22;38046;49.448;32.074;2023-03-14T07:23:12;10.30;48.60
52036;DHT22;38046;49.448;32.074;2023-03-14T07:25:37;10.30;48.80
52036;DHT22;38046;49.448;32.074;2023-03-14T07:28:03;10.30;48.70
52036;DHT22;38046;49.448;32.074;2023-03-14T07:30:29;10.20;48.70
52036;DHT22;38046;49.448;32.074;2023-03-14T07:32:54;10.20;48.70
52036;DHT22;38046;49.448;32.074;2023-03-14T07:35:20;10.10;48.70
52036;DHT22;38046;49.448;32.074;2023-03-14T07:37:46;10.10;49.00
52036;DHT22;38046;49.448;32.074;2023-03-14T07:40:12;10.00;48.90
52036;DHT22;38046;49.448;32.074;2023-03-14T07:42:41;10.00;49.10
52036;DHT22;38046;49.448;32.074;2023-03-14T07:45:08;10.00;49.30
52036;DHT22;38046;49.448;32.074;2023-03-14T07:47:34;10.00;49.50
52036;DHT22;38046;49.448;32.074;2023-03-14T07:49:59;10.00;49.50
52036;DHT22;38046;49.448;32.074;2023-03-14T07:52:25;10.10;49.70
52036;DHT22;38046;49.448;32.074;2023-03-14T07:54:51;10.20;49.60
52036;DHT22;38046;49.448;32.074;2023-03-14T07:57:16;10.10;49.40
52036;DHT22;38046;49.448;32.074;2023-03-14T07:59:42;10.10;49.50
52036;DHT22;38046;49.448;32.074;2023-03-14T08:02:11;10.20;49.70
52036;DHT22;38046;49.448;32.074;2023-03-14T08:04:38;10.20;49.60
52036;DHT22;38046;49.448;32.074;2023-03-14T08:07:04;10.20;49.70
52036;DHT22;38046;49.448;32.074;2023-03-14T08:09:30;10.30;49.70
52036;DHT22;38046;49.448;32.074;2023-03-14T08:11:56;10.30;49.70
52036;DHT22;38046;49.448;32.074;2023-03-14T08:14:21;10.40;49.50
52036;DHT22;38046;49.448;32.074;2023-03-14T08:16:49;10.40;49.30
52036;DHT22;38046;49.448;32.074;2023-03-14T08:19:15;10.40;49.20
52036;DHT22;38046;49.448;32.074;2023-03-14T08:21:41;10.50;49.30
52036;DHT22;38046;49.448;32.074;2023-03-14T08:24:07;10.60;49.10
52036;DHT22;38046;49.448;32.074;2023-03-14T08:26:32;10.60;49.10
52036;DHT22;38046;49.448;32.074;2023-03-14T08:28:58;10.70;49.20
52036;DHT22;38046;49.448;32.074;2023-03-14T08:31:24;10.80;49.30
52036;DHT22;38046;49.448;32.074;2023-03-14T08:33:49;10.80;49.10
52036;DHT22;38046;49.448;32.074;2023-03-14T08:36:17;10.90;49.00
52036;DHT22;38046;49.448;32.074;2023-03-14T08:38:43;11.00;48.90
52036;DHT22;38046;49.448;32.074;2023-03-14T08:41:09;11.00;48.80
52036;DHT22;38046;49.448;32.074;2023-03-14T08:43:35;11.10;48.90
52036;DHT22;38046;49.448;32.074;2023-03-14T08:46:02;11.10;49.40
52036;DHT22;38046;49.448;32.074;2023-03-14T08:48:28;11.10;48.80
52036;DHT22;38046;49.448;32.074;2023-03-14T08:51:05;11.10;48.60
52036;DHT22;38046;49.448;32.074;2023-03-14T08:53:31;11.10;48.50
52036;DHT22;38046;49.448;32.074;2023-03-14T08:55:57;11.10;48.50
52036;DHT22;38046;49.448;32.074;2023-03-14T08:58:23;11.10;48.50
52036;DHT22;38046;49.448;32.074;2023-03-14T09:00:49;11.10;48.50
52036;DHT22;38046;49.448;32.074;2023-03-14T09:03:15;11.10;48.50
52036;DHT22;38046;49.448;32.074;2023-03-14T09:05:41;11.10;48.30
52036;DHT22;38046;49.448;32.074;2023-03-14T09:08:06;11.00;48.30
52036;DHT22;38046;49.448;32.074;2023-03-14T09:10:32;11.00;48.60
52036;DHT22;38046;49.448;32.074;2023-03-14T09:12:58;11.00;48.50
52036;DHT22;38046;49.448;32.074;2023-03-14T09:15:24;11.00;48.60
52036;DHT22;38046;49.448;32.074;2023-03-14T09:17:50;11.00;48.50
52036;DHT22;38046;49.448;32.074;2023-03-14T09:20:16;11.10;48.70
52036;DHT22;38046;49.448;32.074;2023-03-14T09:22:42;11.10;48.60
52036;DHT22;38046;49.448;32.074;2023-03-14T09:25:08;11.20;48.50
52036;DHT22;38046;49.448;32.074;2023-03-14T09:27:34;11.30;48.40
52036;DHT22;38046;49.448;32.074;2023-03-14T09:29:59;11.40;48.20
52036;DHT22;38046;49.448;32.074;2023-03-14T09:32:25;11.50;48.10
52036;DHT22;38046;49.448;32.074;2023-03-14T09:34:50;11.60;47.80
52036;DHT22;38046;49.448;32.074;2023-03-14T09:37:16;11.60;47.70
52036;DHT22;38046;49.448;32.074;2023-03-14T09:39:42;11.70;47.30
52036;DHT22;38046;49.448;32.074;2023-03-14T09:42:13;11.70;47.00
52036;DHT22;38046;49.448;32.074;2023-03-14T09:45:02;11.80;46.60
52036;DHT22;38046;49.448;32.074;2023-03-14T09:47:29;11.80;46.50
52036;DHT22;38046;49.448;32.074;2023-03-14T09:49:55;11.80;46.30
52036;DHT22;38046;49.448;32.074;2023-03-14T09:52:29;11.80;46.40
52036;DHT22;38046;49.448;32.074;2023-03-14T09:55:07;11.90;46.70
52036;DHT22;38046;49.448;32.074;2023-03-14T09:57:35;11.90;46.80
52036;DHT22;38046;49.448;32.074;2023-03-14T10:00:22;12.00;46.80
52036;DHT22;38046;49.448;32.074;2023-03-14T10:05:40;12.00;46.50
52036;DHT22;38046;49.448;32.074;2023-03-14T10:08:10;12.10;46.40
52036;DHT22;38046;49.448;32.074;2023-03-14T10:10:36;12.10;46.30
52036;DHT22;38046;49.448;32.074;2023-03-14T10:13:11;12.10;46.20
52036;DHT22;38046;49.448;32.074;2023-03-14T10:15:39;12.10;46.00
52036;DHT22;38046;49.448;32.074;2023-03-14T10:18:12;12.10;45.80
52036;DHT22;38046;49.448;32.074;2023-03-14T10:20:47;12.20;45.60
52036;DHT22;38046;49.448;32.074;2023-03-14T10:26:06;12.10;45.10
52036;DHT22;38046;49.448;32.074;2023-03-14T10:28:53;12.10;45.00
52036;DHT22;38046;49.448;32.074;2023-03-14T10:31:25;12.20;44.90
52036;DHT22;38046;49.448;32.074;2023-03-14T10:34:02;12.20;44.90
52036;DHT22;38046;49.448;32.074;2023-03-14T10:36:30;12.30;44.60
52036;DHT22;38046;49.448;32.074;2023-03-14T10:42:18;12.30;44.40
52036;DHT22;38046;49.448;32.074;2023-03-14T10:44:45;12.30;44.30
52036;DHT22;38046;49.448;32.074;2023-03-14T10:47:30;12.30;44.20
52036;DHT22;38046;49.448;32.074;2023-03-14T10:52:49;12.40;43.10
52036;DHT22;38046;49.448;32.074;2023-03-14T10:55:16;12.40;43.10
52036;DHT22;38046;49.448;32.074;2023-03-14T10:57:43;12.50;43.00
52036;DHT22;38046;49.448;32.074;2023-03-14T11:08:07;12.50;42.40
52036;DHT22;38046;49.448;32.074;2023-03-14T11:10:46;12.50;42.50
52036;DHT22;38046;49.448;32.074;2023-03-14T11:19:06;12.50;42.50
52036;DHT22;38046;49.448;32.074;2023-03-14T11:24:43;12.50;42.50
52036;DHT22;38046;49.448;32.074;2023-03-14T11:29:41;12.50;42.30
52036;DHT22;38046;49.448;32.074;2023-03-14T11:32:43;12.50;42.20
52036;DHT22;38046;49.448;32.074;2023-03-14T11:35:22;12.50;42.20
52036;DHT22;38046;49.448;32.074;2023-03-14T11:37:56;12.50;42.00
52036;DHT22;38046;49.448;32.074;2023-03-14T11:40:26;12.50;41.90
52036;DHT22;38046;49.448;32.074;2023-03-14T11:45:36;12.50;41.50
52036;DHT22;38046;49.448;32.074;2023-03-14T11:50:51;12.50;41.70
52036;DHT22;38046;49.448;32.074;2023-03-14T11:56:02;12.50;41.40
52036;DHT22;38046;49.448;32.074;2023-03-14T11:58:34;12.50;41.30
52036;DHT22;38046;49.448;32.074;2023-03-14T12:01:09;12.50;41.20
52036;DHT22;38046;49.448;32.074;2023-03-14T12:04:18;12.50;41.30
52036;DHT22;38046;49.448;32.074;2023-03-14T12:09:11;12.50;41.50
52036;DHT22;38046;49.448;32.074;2023-03-14T12:11:46;12.50;41.60
52036;DHT22;38046;49.448;32.074;2023-03-14T12:14:29;12.60;41.50
52036;DHT22;38046;49.448;32.074;2023-03-14T12:17:26;12.60;41.70
52036;DHT22;38046;49.448;32.074;2023-03-14T12:20:20;12.60;41.70
52036;DHT22;38046;49.448;32.074;2023-03-14T12:22:47;12.70;41.80
52036;DHT22;38046;49.448;32.074;2023-03-14T12:25:18;12.70;41.90
52036;DHT22;38046;49.448;32.074;2023-03-14T12:30:32;12.80;42.00
52036;DHT22;38046;49.448;32.074;2023-03-14T12:35:50;12.80;41.60
52036;DHT22;38046;49.448;32.074;2023-03-14T12:41:23;12.90;41.60
52036;DHT22;38046;49.448;32.074;2023-03-14T12:43:50;13.00;41.50
52036;DHT22;38046;49.448;32.074;2023-03-14T12:46:23;13.00;41.20
52036;DHT22;38046;49.448;32.074;2023-03-14T12:51:39;13.10;41.00
52036;DHT22;38046;49.448;32.074;2023-03-14T12:59:37;13.20;41.00
52036;DHT22;38046;49.448;32.074;2023-03-14T13:04:43;13.20;41.10
52036;DHT22;38046;49.448;32.074;2023-03-14T13:07:34;13.20;41.00
52036;DHT22;38046;49.448;32.074;2023-03-14T13:10:01;13.20;40.90
52036;DHT22;38046;49.448;32.074;2023-03-14T13:15:33;13.20;41.00
52036;DHT22;38046;49.448;32.074;2023-03-14T13:18:03;13.10;41.20
52036;DHT22;38046;49.448;32.074;2023-03-14T13:20:51;13.10;41.00
52036;DHT22;38046;49.448;32.074;2023-03-14T13:23:25;13.20;41.10
52036;DHT22;38046;49.448;32.074;2023-03-14T13:25:51;13.10;40.80
52036;DHT22;38046;49.448;32.074;2023-03-14T13:28:18;13.10;40.70
52036;DHT22;38046;49.448;32.074;2023-03-14T13:30:45;13.10;40.80
52036;DHT22;38046;49.448;32.074;2023-03-14T13:33:19;13.00;40.60
52036;DHT22;38046;49.448;32.074;2023-03-14T13:35:47;13.00;40.70
52036;DHT22;38046;49.448;32.074;2023-03-14T13:38:19;13.00;40.90
52036;DHT22;38046;49.448;32.074;2023-03-14T13:40:46;13.00;40.70
52036;DHT22;38046;49.448;32.074;2023-03-14T13:45:51;13.00;40.90
52036;DHT22;38046;49.448;32.074;2023-03-14T13:48:19;13.00;41.00
52036;DHT22;38046;49.448;32.074;2023-03-14T13:50:56;13.00;41.10
52036;DHT22;38046;49.448;32.074;2023-03-14T13:53:24;13.00;41.00
52036;DHT22;38046;49.448;32.074;2023-03-14T13:55:50;13.00;41.00
52036;DHT22;38046;49.448;32.074;2023-03-14T14:01:14;13.00;41.20
52036;DHT22;38046;49.448;32.074;2023-03-14T14:03:42;13.10;40.90
52036;DHT22;38046;49.448;32.074;2023-03-14T14:06:30;13.00;40.80
52036;DHT22;38046;49.448;32.074;2023-03-14T14:08:58;13.00;40.60
52036;DHT22;38046;49.448;32.074;2023-03-14T14:16:52;13.00;40.70
52036;DHT22;38046;49.448;32.074;2023-03-14T14:19:19;12.90;40.70
52036;DHT22;38046;49.448;32.074;2023-03-14T14:21:46;12.90;40.80
52036;DHT22;38046;49.448;32.074;2023-03-14T14:24:14;12.90;40.80
52036;DHT22;38046;49.448;32.074;2023-03-14T14:26:46;12.90;40.80
52036;DHT22;38046;49.448;32.074;2023-03-14T14:29:31;12.90;40.90
52036;DHT22;38046;49.448;32.074;2023-03-14T14:32:23;12.90;40.90
52036;DHT22;38046;49.448;32.074;2023-03-14T14:34:58;12.90;41.00
52036;DHT22;38046;49.448;32.074;2023-03-14T14:37:29;12.90;40.90
52036;DHT22;38046;49.448;32.074;2023-03-14T14:39:59;12.90;41.00
52036;DHT22;38046;49.448;32.074;2023-03-14T14:42:29;12.80;41.00
52036;DHT22;38046;49.448;32.074;2023-03-14T14:44:57;12.90;41.20
52036;DHT22;38046;49.448;32.074;2023-03-14T14:47:24;12.90;41.20
52036;DHT22;38046;49.448;32.074;2023-03-14T14:49:52;12.80;41.10
52036;DHT22;38046;49.448;32.074;2023-03-14T14:52:33;12.90;41.20
52036;DHT22;38046;49.448;32.074;2023-03-14T14:55:00;12.80;41.00
52036;DHT22;38046;49.448;32.074;2023-03-14T14:57:28;12.80;41.10
52036;DHT22;38046;49.448;32.074;2023-03-14T15:00:00;12.80;40.80
52036;DHT22;38046;49.448;32.074;2023-03-14T15:02:49;12.80;40.90
52036;DHT22;38046;49.448;32.074;2023-03-14T15:07:43;12.80;40.90
52036;DHT22;38046;49.448;32.074;2023-03-14T15:10:20;12.80;40.80
52036;DHT22;38046;49.448;32.074;2023-03-14T15:12:47;12.70;40.90
52036;DHT22;38046;49.448;32.074;2023-03-14T15:15:16;12.70;40.70
52036;DHT22;38046;49.448;32.074;2023-03-14T15:17:43;12.70;40.80
52036;DHT22;38046;49.448;32.074;2023-03-14T15:20:14;12.60;40.80
52036;DHT22;38046;49.448;32.074;2023-03-14T15:22:41;12.60;40.70
52036;DHT22;38046;49.448;32.074;2023-03-14T15:25:07;12.60;40.80
52036;DHT22;38046;49.448;32.074;2023-03-14T15:27:34;12.60;40.80
52036;DHT22;38046;49.448;32.074;2023-03-14T15:29:59;12.50;40.80
52036;DHT22;38046;49.448;32.074;2023-03-14T15:32:26;12.50;40.60
52036;DHT22;38046;49.448;32.074;2023-03-14T15:34:56;12.50;40.70
52036;DHT22;38046;49.448;32.074;2023-03-14T15:37:22;12.50;40.80
52036;DHT22;38046;49.448;32.074;2023-03-14T15:39:48;12.40;40.70
52036;DHT22;38046;49.448;32.074;2023-03-14T15:42:14;12.40;40.70
52036;DHT22;38046;49.448;32.074;2023-03-14T15:44:40;12.30;40.70
52036;DHT22;38046;49.448;32.074;2023-03-14T15:47:06;12.30;40.80
52036;DHT22;38046;49.448;32.074;2023-03-14T15:49:33;12.30;40.80
52036;DHT22;38046;49.448;32.074;2023-03-14T15:52:00;12.20;40.80
52036;DHT22;38046;49.448;32.074;2023-03-14T15:54:25;12.20;40.90
52036;DHT22;38046;49.448;32.074;2023-03-14T15:56:57;12.20;41.00
52036;DHT22;38046;49.448;32.074;2023-03-14T15:59:23;12.10;41.10
52036;DHT22;38046;49.448;32.074;2023-03-14T16:01:49;12.10;41.10
52036;DHT22;38046;49.448;32.074;2023-03-14T16:04:15;12.10;41.20
52036;DHT22;38046;49.448;32.074;2023-03-14T16:06:41;12.00;41.40
52036;DHT22;38046;49.448;32.074;2023-03-14T16:09:12;12.00;41.40
52036;DHT22;38046;49.448;32.074;2023-03-14T16:11:38;12.00;41.70
52036;DHT22;38046;49.448;32.074;2023-03-14T16:14:04;11.90;41.70
52036;DHT22;38046;49.448;32.074;2023-03-14T16:16:29;11.90;41.70
52036;DHT22;38046;49.448;32.074;2023-03-14T16:18:55;11.90;42.00
52036;DHT22;38046;49.448;32.074;2023-03-14T16:21:22;11.80;42.00
52036;DHT22;38046;49.448;32.074;2023-03-14T16:23:47;11.80;42.70
52036;DHT22;38046;49.448;32.074;2023-03-14T16:26:18;11.80;42.20
52036;DHT22;38046;49.448;32.074;2023-03-14T16:28:44;11.70;42.30
52036;DHT22;38046;49.448;32.074;2023-03-14T16:31:13;11.70;42.40
52036;DHT22;38046;49.448;32.074;2023-03-14T16:33:40;11.60;42.40
52036;DHT22;38046;49.448;32.074;2023-03-14T16:36:07;11.60;42.70
52036;DHT22;38046;49.448;32.074;2023-03-14T16:38:36;11.60;42.80
52036;DHT22;38046;49.448;32.074;2023-03-14T16:41:08;11.50;42.70
52036;DHT22;38046;49.448;32.074;2023-03-14T16:43:34;11.50;42.80
52036;DHT22;38046;49.448;32.074;2023-03-14T16:46:05;11.50;43.10
52036;DHT22;38046;49.448;32.074;2023-03-14T16:48:32;11.50;43.30
52036;DHT22;38046;49.448;32.074;2023-03-14T16:50:58;11.40;43.50
52036;DHT22;38046;49.448;32.074;2023-03-14T16:53:24;11.40;43.60
52036;DHT22;38046;49.448;32.074;2023-03-14T16:55:53;11.40;43.80